Time;durP1;ratioP1;P1;durP2;ratioP2;P2;SDS_P1;SDS_P2;PMS_P1;PMS_P2;Temp;Humidity;BMP_temperature;BMP_pressure;BME280_temperature;BME280_humidity;BME280_pressure;Samples;Min_cycle;Max_cycle;Signal;HPM_P1;HPM_P2
2022/04/09 00:01:18;;;;;;;6.47;2.20;;;4.10;99.90;;;;;;5118977;27;20449;-87
2022/04/09 00:03:44;;;;;;;6.90;1.80;;;4.10;99.90;;;;;;5127182;27;20501;-87
2022/04/09 00:06:10;;;;;;;6.43;1.80;;;4.10;99.90;;;;;;5121748;27;20392;-87
2022/04/09 00:08:35;;;;;;;8.68;1.80;;;4.10;99.90;;;;;;5115601;27;20039;-87
2022/04/09 00:11:01;;;;;;;9.10;2.53;;;4.10;99.90;;;;;;5105053;27;20159;-88
2022/04/09 00:13:26;;;;;;;6.15;1.48;;;4.10;99.90;;;;;;5135460;27;20051;-88
2022/04/09 00:15:52;;;;;;;7.70;1.58;;;4.00;99.90;;;;;;5105105;27;20035;-88
2022/04/09 00:18:17;;;;;;;10.48;1.90;;;4.00;99.90;;;;;;5118344;27;20122;-88
2022/04/09 00:20:43;;;;;;;8.00;1.80;;;4.00;99.90;;;;;;5117450;27;20507;-87
2022/04/09 00:23:10;;;;;;;8.73;1.60;;;4.00;99.90;;;;;;5133687;27;20515;-87
2022/04/09 00:25:36;;;;;;;11.32;2.10;;;4.00;99.90;;;;;;5118618;27;20035;-87
2022/04/09 00:28:01;;;;;;;5.32;1.50;;;4.00;99.90;;;;;;5130375;27;20126;-88
2022/04/09 00:30:27;;;;;;;9.00;2.22;;;4.10;99.90;;;;;;5125932;27;20469;-88
2022/04/09 00:32:53;;;;;;;8.60;1.92;;;4.00;99.90;;;;;;5104599;27;20092;-87
2022/04/09 00:35:18;;;;;;;7.80;1.85;;;4.00;99.90;;;;;;5129702;27;20070;-87
2022/04/09 00:37:45;;;;;;;8.13;2.08;;;4.00;99.90;;;;;;5110916;27;20125;-87
2022/04/09 00:40:14;;;;;;;7.15;1.60;;;4.10;99.90;;;;;;5098064;27;20046;-87
2022/04/09 00:42:42;;;;;;;7.70;1.80;;;4.20;99.90;;;;;;5127757;27;20035;-87
2022/04/09 00:45:09;;;;;;;6.72;1.23;;;4.30;99.90;;;;;;5133053;27;20034;-87
2022/04/09 00:47:38;;;;;;;8.55;1.50;;;4.30;99.90;;;;;;5104337;28;20046;-87
2022/04/09 00:50:06;;;;;;;4.10;0.93;;;4.20;99.90;;;;;;5100582;28;20310;-87
2022/04/09 00:52:40;;;;;;;4.22;1.05;;;4.10;99.90;;;;;;5097491;28;20047;-88
2022/04/09 00:55:07;;;;;;;4.22;0.93;;;4.00;99.90;;;;;;5105895;27;20042;-88
2022/04/09 00:57:34;;;;;;;4.45;0.70;;;3.90;99.90;;;;;;5114240;27;20171;-86
2022/04/09 01:00:09;;;;;;;4.03;1.00;;;3.90;99.90;;;;;;5113233;28;20035;-87
2022/04/09 01:02:39;;;;;;;4.80;0.82;;;3.90;99.90;;;;;;5130006;27;20504;-86
2022/04/09 01:05:06;;;;;;;7.82;0.93;;;3.90;99.90;;;;;;5102007;27;20523;-87
2022/04/09 01:07:33;;;;;;;7.03;1.30;;;3.90;99.90;;;;;;5117468;27;20035;-87
2022/04/09 01:09:58;;;;;;;6.90;1.25;;;3.90;99.90;;;;;;5127480;27;20092;-86
2022/04/09 01:12:24;;;;;;;5.40;1.17;;;3.90;99.90;;;;;;5116068;27;20038;-87
2022/04/09 01:14:50;;;;;;;3.58;1.17;;;3.90;99.90;;;;;;5134183;27;20034;-86
2022/04/09 01:17:15;;;;;;;6.28;1.50;;;3.90;99.90;;;;;;5117543;27;20027;-87
2022/04/09 01:19:41;;;;;;;7.13;1.30;;;3.90;99.90;;;;;;5117378;27;20042;-87
2022/04/09 01:22:07;;;;;;;4.80;1.30;;;3.90;99.90;;;;;;5134871;27;20041;-87
2022/04/09 01:24:32;;;;;;;11.35;1.80;;;4.00;99.90;;;;;;5116176;27;20033;-86
2022/04/09 01:26:58;;;;;;;6.35;1.40;;;3.90;99.90;;;;;;5116869;27;20122;-86
2022/04/09 01:29:23;;;;;;;15.07;1.70;;;3.90;99.90;;;;;;5133648;27;20421;-88
2022/04/09 01:31:49;;;;;;;10.07;1.58;;;3.90;99.90;;;;;;5124945;27;20381;-87
2022/04/09 01:34:14;;;;;;;8.05;1.63;;;3.90;99.90;;;;;;5134625;27;20041;-87
2022/04/09 01:36:40;;;;;;;7.90;1.67;;;3.80;99.90;;;;;;5134797;27;20050;-87
2022/04/09 01:39:06;;;;;;;7.93;1.63;;;3.80;99.90;;;;;;5117159;27;20047;-87
2022/04/09 01:41:31;;;;;;;9.70;1.73;;;3.70;99.90;;;;;;5117929;27;20043;-88
2022/04/09 01:43:57;;;;;;;9.70;1.40;;;3.60;99.90;;;;;;5122865;27;20126;-88
2022/04/09 01:46:22;;;;;;;7.63;1.55;;;3.60;99.90;;;;;;5119260;27;20030;-88
2022/04/09 01:48:48;;;;;;;6.63;1.65;;;3.50;99.90;;;;;;5138316;27;20034;-87
2022/04/09 01:51:13;;;;;;;6.28;1.52;;;3.40;99.90;;;;;;5115652;27;20574;-88
2022/04/09 01:53:39;;;;;;;4.63;1.60;;;3.40;99.90;;;;;;5116035;27;20034;-87
2022/04/09 01:56:05;;;;;;;7.70;1.40;;;3.40;99.90;;;;;;5121183;27;20039;-87
2022/04/09 01:58:30;;;;;;;6.70;1.67;;;3.30;99.90;;;;;;5135246;27;20035;-87
2022/04/09 02:00:59;;;;;;;7.20;1.83;;;3.30;99.90;;;;;;5135013;27;20502;-88
2022/04/09 02:03:26;;;;;;;8.50;1.67;;;3.30;99.90;;;;;;5100579;27;20121;-87
2022/04/09 02:05:51;;;;;;;5.78;1.50;;;3.30;99.90;;;;;;5118895;27;20076;-87
2022/04/09 02:08:17;;;;;;;6.18;1.88;;;3.30;99.90;;;;;;5109305;27;20433;-88
2022/04/09 02:10:43;;;;;;;9.40;2.05;;;3.40;99.90;;;;;;5136171;27;20070;-88
2022/04/09 02:13:16;;;;;;;8.55;1.88;;;3.30;99.90;;;;;;5107725;27;20405;-87
2022/04/09 02:15:41;;;;;;;6.63;1.20;;;3.30;99.90;;;;;;5134906;27;20042;-88
2022/04/09 02:18:07;;;;;;;9.02;1.52;;;3.40;99.90;;;;;;5152383;27;20091;-88
2022/04/09 02:20:33;;;;;;;9.65;1.80;;;3.40;99.90;;;;;;5118491;27;20077;-87
2022/04/09 02:22:59;;;;;;;9.07;1.65;;;3.40;99.90;;;;;;5120118;27;20034;-88
2022/04/09 02:25:24;;;;;;;6.18;1.30;;;3.40;99.90;;;;;;5109945;27;20039;-88
2022/04/09 02:27:50;;;;;;;9.90;1.65;;;3.30;99.90;;;;;;5137868;27;20369;-88
2022/04/09 02:30:15;;;;;;;7.20;2.03;;;3.30;99.90;;;;;;5118747;27;20031;-88
2022/04/09 02:32:42;;;;;;;7.47;1.67;;;3.20;99.90;;;;;;5116156;27;20041;-87
2022/04/09 02:35:08;;;;;;;6.95;1.70;;;3.20;99.90;;;;;;5126339;27;20039;-87
2022/04/09 02:37:34;;;;;;;12.95;2.08;;;3.10;99.90;;;;;;5125844;27;20039;-87
2022/04/09 02:40:01;;;;;;;8.57;2.17;;;3.00;99.90;;;;;;5108468;27;20495;-87
2022/04/09 02:42:26;;;;;;;8.63;1.73;;;3.00;99.90;;;;;;5121988;27;20118;-87
2022/04/09 02:44:52;;;;;;;9.73;1.67;;;3.00;99.90;;;;;;5108312;27;20587;-87
2022/04/09 02:47:17;;;;;;;8.38;1.70;;;3.00;99.90;;;;;;5129341;27;20038;-87
2022/04/09 02:49:43;;;;;;;8.25;1.75;;;3.00;99.90;;;;;;5116667;27;20031;-88
2022/04/09 02:52:08;;;;;;;8.05;1.70;;;2.90;99.90;;;;;;5111423;27;20041;-86
2022/04/09 02:54:34;;;;;;;11.00;2.05;;;2.80;99.90;;;;;;5135443;27;20117;-88
2022/04/09 02:56:59;;;;;;;10.27;1.63;;;3.30;99.90;;;;;;5136647;27;20538;-87
2022/04/09 02:59:27;;;;;;;9.18;1.73;;;2.90;99.90;;;;;;5113913;27;20515;-86
2022/04/09 03:01:52;;;;;;;7.07;1.58;;;2.90;99.90;;;;;;5136404;27;20484;-87
2022/04/09 03:04:18;;;;;;;6.55;1.50;;;3.00;99.90;;;;;;5119557;27;20163;-88
2022/04/09 03:06:43;;;;;;;8.55;1.70;;;3.00;99.90;;;;;;5136600;27;20117;-88
2022/04/09 03:09:09;;;;;;;6.25;1.20;;;3.00;99.90;;;;;;5110271;27;20034;-87
2022/04/09 03:11:35;;;;;;;7.30;1.65;;;3.10;99.90;;;;;;5119432;27;20038;-88
2022/04/09 03:14:00;;;;;;;7.53;1.70;;;3.30;99.90;;;;;;5127664;27;20031;-88
2022/04/09 03:16:26;;;;;;;8.63;1.75;;;3.40;99.90;;;;;;5127611;27;20111;-87
2022/04/09 03:18:51;;;;;;;4.18;1.38;;;4.10;99.90;;;;;;5114754;27;20423;-88
2022/04/09 03:21:17;;;;;;;6.50;1.40;;;4.10;99.90;;;;;;5109712;27;20035;-88
2022/04/09 03:23:43;;;;;;;5.55;1.27;;;3.50;99.90;;;;;;5118444;27;20572;-88
2022/04/09 03:26:08;;;;;;;6.35;1.30;;;4.20;99.90;;;;;;5119667;27;20035;-87
2022/04/09 03:28:34;;;;;;;9.57;1.58;;;3.30;99.90;;;;;;5132994;27;20125;-88
2022/04/09 03:30:59;;;;;;;8.20;1.50;;;3.30;99.90;;;;;;5119608;27;20472;-88
2022/04/09 03:33:25;;;;;;;7.57;1.55;;;3.10;99.90;;;;;;5104633;27;20042;-88
2022/04/09 03:35:51;;;;;;;10.48;2.22;;;3.10;99.90;;;;;;5132935;27;20102;-87
2022/04/09 03:38:17;;;;;;;10.55;1.60;;;3.00;99.90;;;;;;5129024;27;20032;-87
2022/04/09 03:40:43;;;;;;;7.35;1.55;;;3.00;99.90;;;;;;5115630;27;20031;-87
2022/04/09 03:43:23;;;;;;;12.27;2.00;;;2.90;99.90;;;;;;5110096;27;20031;-88
2022/04/09 03:45:49;;;;;;;8.70;1.50;;;3.00;99.90;;;;;;5130700;27;20063;-88
2022/04/09 03:48:14;;;;;;;14.23;1.67;;;3.60;99.90;;;;;;5116171;27;20038;-87
2022/04/09 03:50:40;;;;;;;9.13;1.95;;;2.70;99.90;;;;;;5118651;27;20077;-88
2022/04/09 03:53:05;;;;;;;9.85;1.38;;;2.80;99.90;;;;;;5135427;27;20042;-87
2022/04/09 03:55:31;;;;;;;11.15;1.70;;;2.80;99.90;;;;;;5118554;27;20063;-88
2022/04/09 03:57:57;;;;;;;9.20;1.48;;;2.80;99.90;;;;;;5101945;27;20043;-87
2022/04/09 04:00:22;;;;;;;12.55;1.60;;;3.30;99.90;;;;;;5098543;27;20515;-86
2022/04/09 04:02:48;;;;;;;10.18;1.58;;;2.80;99.90;;;;;;5106054;27;20035;-87
2022/04/09 04:05:13;;;;;;;9.35;1.88;;;2.80;99.90;;;;;;5117332;27;20049;-85
2022/04/09 04:07:44;;;;;;;8.88;1.67;;;2.80;99.90;;;;;;5113033;27;20045;-88
2022/04/09 04:10:10;;;;;;;6.05;1.40;;;2.70;99.90;;;;;;5118015;27;20043;-88
2022/04/09 04:12:36;;;;;;;7.70;1.75;;;2.70;99.90;;;;;;5107991;28;20471;-87
2022/04/09 04:15:03;;;;;;;9.48;1.45;;;2.70;99.90;;;;;;5098146;28;20130;-87
2022/04/09 04:17:39;;;;;;;8.45;1.48;;;2.80;99.90;;;;;;5115149;27;20042;-87
2022/04/09 04:20:06;;;;;;;6.70;1.75;;;2.80;99.90;;;;;;5131476;27;20027;-87
2022/04/09 04:22:31;;;;;;;8.50;1.83;;;2.90;99.90;;;;;;5103637;27;20473;-87
2022/04/09 04:24:57;;;;;;;8.48;1.70;;;3.00;99.90;;;;;;5105609;27;20114;-87
2022/04/09 04:27:22;;;;;;;8.07;1.20;;;3.00;99.90;;;;;;5109446;27;20549;-87
2022/04/09 04:29:48;;;;;;;11.02;1.88;;;3.00;99.90;;;;;;5131196;27;20038;-87
2022/04/09 04:32:13;;;;;;;8.05;1.20;;;3.00;99.90;;;;;;5132343;27;20031;-86
2022/04/09 04:34:39;;;;;;;8.48;1.67;;;3.00;99.90;;;;;;5106822;28;20092;-88
2022/04/09 04:37:04;;;;;;;6.07;1.50;;;3.00;99.90;;;;;;5116343;27;20035;-88
2022/04/09 04:39:30;;;;;;;6.65;1.40;;;3.00;99.90;;;;;;5131400;27;20039;-88
2022/04/09 04:41:55;;;;;;;8.20;1.30;;;3.00;99.90;;;;;;5129963;28;20062;-88
2022/04/09 04:44:21;;;;;;;10.25;1.50;;;3.00;99.90;;;;;;5115045;27;20121;-88
2022/04/09 04:46:46;;;;;;;3.67;1.27;;;2.90;99.90;;;;;;5109298;27;20026;-87
2022/04/09 04:49:12;;;;;;;6.65;1.40;;;2.90;99.90;;;;;;5110832;27;20050;-87
2022/04/09 04:51:38;;;;;;;7.82;1.50;;;2.90;99.90;;;;;;5101641;27;20090;-88
2022/04/09 04:54:03;;;;;;;9.45;1.50;;;2.90;99.90;;;;;;5117180;27;20034;-87
2022/04/09 04:56:29;;;;;;;5.68;1.20;;;2.90;99.90;;;;;;5135198;27;20152;-88
2022/04/09 04:58:55;;;;;;;6.90;1.38;;;3.80;99.90;;;;;;5132967;27;20163;-87
2022/04/09 05:01:20;;;;;;;5.63;1.75;;;3.00;99.90;;;;;;5129121;27;20039;-88
2022/04/09 05:03:46;;;;;;;6.35;2.08;;;3.50;99.90;;;;;;5110254;28;20024;-88
2022/04/09 05:06:11;;;;;;;5.82;1.60;;;2.90;99.90;;;;;;5097801;28;20058;-87
2022/04/09 05:08:39;;;;;;;5.20;1.35;;;2.90;99.90;;;;;;5129739;28;20123;-88
2022/04/09 05:11:04;;;;;;;5.38;1.77;;;2.90;99.90;;;;;;5113020;27;20074;-87
2022/04/09 05:13:30;;;;;;;7.60;1.55;;;2.80;99.90;;;;;;5129394;27;20034;-88
2022/04/09 05:15:55;;;;;;;10.55;2.17;;;2.80;99.90;;;;;;5102123;27;20095;-88
2022/04/09 05:18:21;;;;;;;7.97;1.60;;;3.30;99.90;;;;;;5118531;27;20554;-88
2022/04/09 05:20:47;;;;;;;11.70;1.38;;;2.90;99.90;;;;;;5101590;27;20039;-88
2022/04/09 05:23:13;;;;;;;6.93;1.30;;;3.00;99.90;;;;;;5101455;27;20085;-88
2022/04/09 05:25:39;;;;;;;4.78;1.30;;;3.00;99.90;;;;;;5101325;27;20066;-87
2022/04/09 05:28:06;;;;;;;10.75;1.60;;;3.00;99.90;;;;;;5119660;27;20513;-89
2022/04/09 05:30:32;;;;;;;7.63;1.63;;;3.10;99.90;;;;;;5119843;27;20436;-88
2022/04/09 05:32:58;;;;;;;4.95;1.25;;;3.50;99.90;;;;;;5101485;27;20050;-88
2022/04/09 05:35:24;;;;;;;8.10;1.40;;;3.10;99.90;;;;;;5126634;27;20039;-87
2022/04/09 05:37:51;;;;;;;7.10;1.40;;;3.70;99.90;;;;;;5114554;27;20047;-87
2022/04/09 05:40:17;;;;;;;7.80;2.22;;;3.20;99.90;;;;;;5121026;27;20469;-89
2022/04/09 05:42:43;;;;;;;8.20;1.30;;;3.90;99.90;;;;;;5112292;27;20504;-88
2022/04/09 05:45:12;;;;;;;9.70;1.50;;;3.20;99.90;;;;;;5107733;27;20045;-88
2022/04/09 05:47:42;;;;;;;8.15;1.52;;;3.40;99.90;;;;;;5120667;27;20484;-88
2022/04/09 05:50:11;;;;;;;7.30;1.60;;;3.50;99.90;;;;;;5120037;27;20041;-88
2022/04/09 05:52:37;;;;;;;10.25;1.90;;;3.60;99.90;;;;;;5100814;27;20046;-88
2022/04/09 05:55:06;;;;;;;8.52;1.50;;;3.60;99.90;;;;;;5125801;27;20023;-87
2022/04/09 05:57:33;;;;;;;11.80;1.50;;;3.70;99.90;;;;;;5120516;27;20027;-87
2022/04/09 06:00:00;;;;;;;8.70;1.70;;;3.70;99.90;;;;;;5138115;27;20511;-87
2022/04/09 06:02:26;;;;;;;8.45;2.03;;;3.80;99.90;;;;;;5114091;27;20388;-86
2022/04/09 06:04:52;;;;;;;11.00;1.90;;;4.20;99.90;;;;;;5120306;27;20117;-87
2022/04/09 06:07:18;;;;;;;10.75;2.00;;;4.30;99.90;;;;;;5107407;27;20076;-88
2022/04/09 06:09:44;;;;;;;9.80;2.03;;;4.00;99.90;;;;;;5106209;27;20038;-87
2022/04/09 06:12:12;;;;;;;10.18;1.88;;;4.10;99.90;;;;;;5120724;27;20042;-87
2022/04/09 06:14:38;;;;;;;13.77;2.05;;;4.40;99.90;;;;;;5118884;27;20034;-87
2022/04/09 06:17:04;;;;;;;13.48;1.70;;;4.30;99.90;;;;;;5112747;27;20031;-87
2022/04/09 06:19:31;;;;;;;8.93;2.08;;;4.30;99.90;;;;;;5111717;27;20097;-87
2022/04/09 06:21:57;;;;;;;6.65;1.60;;;5.00;99.90;;;;;;5124184;27;20532;-87
2022/04/09 06:24:23;;;;;;;9.32;2.20;;;4.40;99.90;;;;;;5134727;27;20172;-87
2022/04/09 06:26:48;;;;;;;10.88;2.42;;;4.70;99.90;;;;;;5135889;27;20516;-87
2022/04/09 06:29:14;;;;;;;16.50;2.85;;;4.60;99.90;;;;;;5100363;27;20039;-87
2022/04/09 06:31:40;;;;;;;12.23;1.90;;;4.70;99.90;;;;;;5099885;27;20513;-87
2022/04/09 06:34:05;;;;;;;10.55;2.33;;;5.40;99.90;;;;;;5120322;27;20042;-86
2022/04/09 06:36:31;;;;;;;13.63;2.63;;;4.90;99.90;;;;;;5129705;27;20056;-86
2022/04/09 06:38:56;;;;;;;12.88;2.15;;;4.90;99.90;;;;;;5134556;27;20042;-88
2022/04/09 06:41:22;;;;;;;11.57;2.08;;;4.90;99.90;;;;;;5110536;27;20047;-87
2022/04/09 06:43:49;;;;;;;10.45;1.92;;;5.00;99.90;;;;;;5102890;27;20062;-87
2022/04/09 06:46:15;;;;;;;13.40;2.33;;;5.10;99.90;;;;;;5121255;27;21898;-87
2022/04/09 06:48:41;;;;;;;10.13;2.40;;;5.10;99.90;;;;;;5128744;27;20088;-87
2022/04/09 06:51:06;;;;;;;7.13;1.88;;;5.10;99.90;;;;;;5111870;27;20487;-86
2022/04/09 06:53:32;;;;;;;8.90;1.55;;;5.10;99.90;;;;;;5114346;27;20045;-88
2022/04/09 06:55:58;;;;;;;8.70;2.10;;;5.20;99.90;;;;;;5116017;27;20037;-87
2022/04/09 06:58:23;;;;;;;9.77;2.05;;;5.40;99.90;;;;;;5124346;27;20042;-87
2022/04/09 07:00:49;;;;;;;8.13;1.70;;;5.60;99.90;;;;;;5130328;27;20141;-87
2022/04/09 07:03:14;;;;;;;11.80;1.73;;;5.70;99.90;;;;;;5129314;27;20035;-87
2022/04/09 07:05:43;;;;;;;7.72;1.45;;;5.90;99.90;;;;;;5127608;27;20039;-87
2022/04/09 07:08:09;;;;;;;8.20;1.70;;;6.10;99.90;;;;;;5131823;27;20038;-86
2022/04/09 07:10:38;;;;;;;9.38;1.70;;;6.30;99.90;;;;;;5134108;27;20039;-86
2022/04/09 07:13:04;;;;;;;7.38;1.30;;;6.40;99.90;;;;;;5108676;27;20039;-86
2022/04/09 07:15:30;;;;;;;7.10;1.83;;;6.50;99.90;;;;;;5127790;27;20511;-87
2022/04/09 07:17:58;;;;;;;9.75;1.58;;;6.60;99.90;;;;;;5124174;27;20125;-87
2022/04/09 07:20:24;;;;;;;7.80;1.65;;;6.60;99.90;;;;;;5110357;27;20034;-87
2022/04/09 07:22:50;;;;;;;9.13;1.52;;;6.40;99.90;;;;;;5111960;27;20039;-86
2022/04/09 07:25:16;;;;;;;7.50;1.58;;;6.30;99.90;;;;;;5105959;27;20063;-86
2022/04/09 07:27:49;;;;;;;9.38;1.35;;;6.30;99.90;;;;;;5110028;27;20031;-86
2022/04/09 07:30:20;;;;;;;6.53;1.37;;;6.50;99.90;;;;;;5113222;27;20034;-87
2022/04/09 07:32:47;;;;;;;12.40;1.60;;;6.60;99.90;;;;;;5105530;27;20273;-87
2022/04/09 07:35:14;;;;;;;7.07;1.40;;;6.70;99.90;;;;;;5122728;27;20046;-86
2022/04/09 07:37:41;;;;;;;5.55;1.05;;;6.70;99.90;;;;;;5113339;27;20050;-86
2022/04/09 07:40:12;;;;;;;6.05;1.30;;;6.40;99.90;;;;;;5111843;27;20037;-86
2022/04/09 07:42:39;;;;;;;10.68;1.40;;;6.10;99.90;;;;;;5126354;27;20035;-86
2022/04/09 07:45:05;;;;;;;6.47;1.10;;;6.00;99.90;;;;;;5100231;27;20402;-86
2022/04/09 07:47:31;;;;;;;8.73;1.50;;;5.90;99.90;;;;;;5130945;27;20121;-86
2022/04/09 07:49:57;;;;;;;7.75;1.20;;;6.10;99.90;;;;;;5122597;27;20114;-86
2022/04/09 07:52:23;;;;;;;13.18;1.45;;;6.20;99.90;;;;;;5124889;27;20058;-87
2022/04/09 07:54:49;;;;;;;9.02;1.50;;;6.20;99.90;;;;;;5104321;27;20441;-86
2022/04/09 07:57:14;;;;;;;8.48;2.15;;;6.30;99.90;;;;;;5104570;27;20032;-85
2022/04/09 07:59:40;;;;;;;10.30;1.92;;;6.20;99.90;;;;;;5128736;27;20035;-86
2022/04/09 08:02:05;;;;;;;10.35;1.70;;;6.40;99.90;;;;;;5113301;27;20101;-86
2022/04/09 08:04:31;;;;;;;13.35;2.08;;;6.70;99.90;;;;;;5127687;27;20058;-86
2022/04/09 08:06:57;;;;;;;14.50;2.30;;;7.00;99.90;;;;;;5109874;27;20454;-86
2022/04/09 08:09:22;;;;;;;6.35;1.45;;;7.20;99.90;;;;;;5108107;27;20046;-87
2022/04/09 08:11:48;;;;;;;8.65;1.42;;;7.30;99.90;;;;;;5109696;27;20031;-87
2022/04/09 08:14:14;;;;;;;15.50;1.67;;;7.30;99.90;;;;;;5130007;27;20043;-87
2022/04/09 08:16:39;;;;;;;10.18;1.92;;;7.30;99.90;;;;;;5105980;27;20424;-86
2022/04/09 08:19:05;;;;;;;8.15;1.35;;;7.20;99.90;;;;;;5107334;27;20031;-86
2022/04/09 08:21:30;;;;;;;8.48;1.50;;;7.40;99.90;;;;;;5104866;27;20039;-86
2022/04/09 08:23:56;;;;;;;7.30;1.30;;;7.60;99.90;;;;;;5115419;27;20046;-86
2022/04/09 08:26:22;;;;;;;8.02;1.85;;;7.50;99.90;;;;;;5114113;27;20066;-85
2022/04/09 08:28:47;;;;;;;8.82;1.55;;;7.40;99.90;;;;;;5097740;27;20131;-85
2022/04/09 08:31:13;;;;;;;10.88;1.67;;;7.40;99.90;;;;;;5102684;27;20533;-86
2022/04/09 08:33:40;;;;;;;11.25;1.90;;;7.50;99.90;;;;;;5125933;27;20034;-86
2022/04/09 08:36:06;;;;;;;11.57;1.83;;;7.50;99.90;;;;;;5125497;27;20055;-86
2022/04/09 08:38:31;;;;;;;7.90;1.52;;;7.40;99.90;;;;;;5117388;27;20039;-86
2022/04/09 08:41:00;;;;;;;9.90;1.67;;;7.50;99.90;;;;;;5118688;27;20060;-86
2022/04/09 08:43:25;;;;;;;7.07;1.52;;;7.50;99.90;;;;;;5114701;28;20028;-86
2022/04/09 08:45:51;;;;;;;7.60;1.63;;;7.60;99.90;;;;;;5109182;27;20529;-86
2022/04/09 08:48:21;;;;;;;10.77;1.60;;;7.80;99.90;;;;;;5119169;27;20035;-86
2022/04/09 08:50:47;;;;;;;13.43;2.03;;;7.90;99.90;;;;;;5108278;27;20076;-87
2022/04/09 08:53:13;;;;;;;10.57;1.52;;;8.10;99.90;;;;;;5116277;27;20399;-86
2022/04/09 08:55:40;;;;;;;10.70;2.53;;;8.10;99.90;;;;;;5111959;27;20036;-87
2022/04/09 08:58:06;;;;;;;12.00;1.92;;;8.20;99.90;;;;;;5129730;27;20114;-86
2022/04/09 09:00:33;;;;;;;5.57;1.45;;;8.00;99.90;;;;;;5113500;27;20038;-86
2022/04/09 09:03:00;;;;;;;6.32;1.40;;;7.50;99.90;;;;;;5115435;27;20042;-87
2022/04/09 09:05:29;;;;;;;5.70;1.20;;;6.60;99.90;;;;;;5138581;27;20503;-88
2022/04/09 09:07:55;;;;;;;2.90;0.80;;;5.70;99.90;;;;;;5119032;27;20568;-87
2022/04/09 09:10:21;;;;;;;4.40;0.80;;;5.30;99.90;;;;;;5127048;27;20039;-86
2022/04/09 09:13:05;;;;;;;6.18;1.17;;;5.00;99.90;;;;;;5113761;27;20034;-86
2022/04/09 09:15:53;;;;;;;7.73;1.03;;;5.00;99.90;;;;;;5111325;27;20079;-87
2022/04/09 09:18:27;;;;;;;4.53;0.90;;;5.00;99.90;;;;;;5138007;27;20068;-86
2022/04/09 09:20:57;;;;;;;4.30;0.73;;;5.40;99.90;;;;;;5121400;27;20054;-86
2022/04/09 09:23:31;;;;;;;4.05;0.70;;;5.80;99.90;;;;;;5128420;27;20035;-87
2022/04/09 09:25:57;;;;;;;;;;;5.90;99.90;;;;;;5121615;27;20030;-85
2022/04/09 09:28:31;;;;;;;9.20;1.10;;;6.00;99.90;;;;;;5119362;27;19919;-87
2022/04/09 09:30:58;;;;;;;12.07;1.65;;;6.00;99.90;;;;;;5127073;27;20051;-87
2022/04/09 09:33:25;;;;;;;7.43;1.30;;;6.00;99.90;;;;;;5103454;27;20083;-86
2022/04/09 09:35:51;;;;;;;9.32;1.15;;;6.30;99.90;;;;;;5102250;27;20039;-87
2022/04/09 09:38:23;;;;;;;7.47;1.45;;;6.40;99.90;;;;;;5132184;27;20035;-88
2022/04/09 09:40:49;;;;;;;9.45;1.58;;;6.50;99.90;;;;;;5115285;27;20073;-87
2022/04/09 09:43:19;;;;;;;13.00;1.42;;;6.70;99.90;;;;;;5134748;27;20030;-86
2022/04/09 09:45:46;;;;;;;7.22;1.42;;;7.20;99.90;;;;;;5118590;27;20562;-87
2022/04/09 09:48:29;;;;;;;12.20;1.83;;;7.50;99.90;;;;;;5119171;27;20692;-88
2022/04/09 09:50:57;;;;;;;11.15;2.05;;;7.70;99.90;;;;;;5131108;27;20042;-87
2022/04/09 09:53:31;;;;;;;5.38;1.27;;;7.40;99.90;;;;;;5112323;27;20031;-86
2022/04/09 09:55:58;;;;;;;5.72;1.00;;;7.00;99.90;;;;;;5120570;27;20395;-87
2022/04/09 09:58:26;;;;;;;3.35;1.17;;;6.70;99.90;;;;;;5113299;27;20027;-87
2022/04/09 10:00:53;;;;;;;3.65;0.60;;;6.50;99.90;;;;;;5117646;27;20527;-87
2022/04/09 10:03:19;;;;;;;0.90;0.40;;;6.60;99.90;;;;;;5111118;27;20500;-88
2022/04/09 10:05:47;;;;;;;2.45;0.47;;;6.70;99.90;;;;;;5120744;27;20099;-87
2022/04/09 10:08:13;;;;;;;2.00;0.40;;;6.80;99.90;;;;;;5114800;27;20034;-86
2022/04/09 10:10:43;;;;;;;2.80;0.50;;;6.90;99.90;;;;;;5106480;27;20031;-87
2022/04/09 10:13:09;;;;;;;1.17;0.47;;;7.20;99.90;;;;;;5120437;27;20377;-88
2022/04/09 10:15:36;;;;;;;2.60;0.43;;;7.30;99.90;;;;;;5117538;27;20117;-87
2022/04/09 10:18:07;;;;;;;4.20;0.60;;;7.30;99.90;;;;;;5106781;27;20039;-86
2022/04/09 10:20:33;;;;;;;2.15;0.32;;;7.40;99.90;;;;;;5130748;27;20076;-87
2022/04/09 10:23:00;;;;;;;2.38;0.50;;;7.60;99.90;;;;;;5103389;27;20399;-87
2022/04/09 10:25:28;;;;;;;3.25;0.60;;;7.70;99.90;;;;;;5107598;27;20035;-87
2022/04/09 10:28:01;;;;;;;5.50;0.85;;;7.80;99.90;;;;;;5137094;27;20039;-90
2022/04/09 10:30:28;;;;;;;4.68;0.85;;;7.80;99.90;;;;;;5102994;27;20039;-87
2022/04/09 10:32:56;;;;;;;5.57;1.13;;;7.80;99.90;;;;;;5116712;27;20039;-86
2022/04/09 10:35:38;;;;;;;4.40;0.80;;;8.10;99.90;;;;;;5105676;27;20046;-86
2022/04/09 10:38:07;;;;;;;6.15;1.10;;;8.20;99.90;;;;;;5135717;27;20085;-87
2022/04/09 10:40:45;;;;;;;5.53;1.08;;;8.10;99.90;;;;;;5130777;27;20043;-87
2022/04/09 10:43:37;;;;;;;4.15;0.70;;;8.30;99.90;;;;;;5103724;27;20031;-86
2022/04/09 10:48:30;;;;;;;5.80;1.13;;;8.80;99.90;;;;;;5124523;27;20047;-87
2022/04/09 10:51:04;;;;;;;6.78;1.33;;;8.70;99.90;;;;;;5112250;27;20467;-87
2022/04/09 10:53:40;;;;;;;6.43;1.02;;;8.20;99.90;;;;;;5124607;27;20046;-87
2022/04/09 10:56:13;;;;;;;4.70;1.35;;;8.10;99.90;;;;;;5126347;27;20060;-87
2022/04/09 10:59:10;;;;;;;8.27;1.17;;;8.10;99.90;;;;;;5123826;27;20039;-86
2022/04/09 11:01:50;;;;;;;6.55;0.93;;;8.10;99.90;;;;;;5107310;27;20542;-86
2022/04/09 11:04:32;;;;;;;4.95;1.30;;;7.90;99.90;;;;;;5132889;27;20068;-87
2022/04/09 11:07:04;;;;;;;7.00;1.40;;;7.80;99.90;;;;;;5128433;27;20046;-86
2022/04/09 11:09:58;;;;;;;7.25;1.30;;;8.00;99.90;;;;;;5107725;27;20053;-86
2022/04/09 11:12:38;;;;;;;7.15;1.25;;;8.40;99.90;;;;;;5124985;27;20042;-86
2022/04/09 11:15:09;;;;;;;8.10;0.93;;;8.90;99.90;;;;;;5126249;27;20043;-87
2022/04/09 11:17:39;;;;;;;6.43;1.10;;;9.20;99.90;;;;;;5114317;27;20406;-86
2022/04/09 11:20:23;;;;;;;8.27;1.23;;;9.60;99.90;;;;;;5109469;27;20039;-87
2022/04/09 11:22:55;;;;;;;7.35;1.15;;;9.60;99.90;;;;;;5115701;27;20039;-86
2022/04/09 11:25:22;;;;;;;8.05;1.25;;;9.60;99.90;;;;;;5108930;27;20071;-86
2022/04/09 11:27:49;;;;;;;8.07;1.30;;;9.60;99.90;;;;;;5109709;27;20035;-86
2022/04/09 11:30:15;;;;;;;6.22;1.00;;;9.60;99.90;;;;;;5113086;27;20424;-87
2022/04/09 11:32:41;;;;;;;6.22;1.13;;;9.50;99.90;;;;;;5114701;27;20180;-86
2022/04/09 11:35:10;;;;;;;5.85;1.20;;;9.40;99.90;;;;;;5134290;27;20039;-86
2022/04/09 11:37:49;;;;;;;4.45;1.00;;;9.40;99.90;;;;;;5118606;27;20095;-86
2022/04/09 11:40:17;;;;;;;3.25;0.73;;;9.30;99.90;;;;;;5105223;27;20062;-86
2022/04/09 11:42:49;;;;;;;6.72;1.30;;;8.80;99.90;;;;;;5110617;27;20035;-86
2022/04/09 11:45:20;;;;;;;6.65;1.67;;;8.30;99.90;;;;;;5097112;27;20122;-86
2022/04/09 11:47:46;;;;;;;6.90;1.17;;;7.80;99.90;;;;;;5114182;27;20042;-86
2022/04/09 11:50:13;;;;;;;6.18;1.10;;;7.50;99.90;;;;;;5096547;27;20087;-87
2022/04/09 11:52:39;;;;;;;10.82;1.23;;;7.60;99.90;;;;;;5095950;27;20050;-86
2022/04/09 11:55:09;;;;;;;5.70;1.40;;;7.80;99.90;;;;;;5095646;27;20046;-88
2022/04/09 11:57:36;;;;;;;4.47;1.10;;;7.80;99.90;;;;;;5095957;27;20054;-88
2022/04/09 12:00:04;;;;;;;7.68;1.20;;;6.80;99.90;;;;;;5096279;27;20039;-88
2022/04/09 12:02:31;;;;;;;5.60;1.20;;;6.00;99.90;;;;;;5097239;27;20069;-86
2022/04/09 12:04:57;;;;;;;5.10;1.27;;;5.70;99.90;;;;;;5097440;27;20039;-87
2022/04/09 12:07:28;;;;;;;5.65;1.00;;;5.70;99.90;;;;;;5114441;27;20044;-87
2022/04/09 12:09:54;;;;;;;6.82;1.02;;;6.00;99.90;;;;;;5098162;27;20045;-87
2022/04/09 12:12:20;;;;;;;6.70;1.17;;;6.60;99.90;;;;;;5114431;27;20039;-86
2022/04/09 12:14:57;;;;;;;5.65;0.90;;;7.00;99.90;;;;;;5114194;27;20125;-86
2022/04/09 12:17:31;;;;;;;5.38;1.02;;;7.10;99.90;;;;;;5097833;27;20396;-87
2022/04/09 12:19:57;;;;;;;2.47;0.70;;;7.30;99.90;;;;;;5114009;27;20125;-86
2022/04/09 12:22:24;;;;;;;4.72;0.70;;;7.70;99.90;;;;;;5099946;27;20142;-86
2022/04/09 12:24:55;;;;;;;3.30;0.80;;;8.00;99.90;;;;;;5108890;27;20122;-86
2022/04/09 12:27:45;;;;;;;7.68;0.80;;;8.20;99.90;;;;;;5115774;27;20054;-86
2022/04/09 12:30:12;;;;;;;4.25;0.90;;;8.20;99.90;;;;;;5107653;27;20305;-87
2022/04/09 12:32:41;;;;;;;5.63;0.88;;;8.30;99.90;;;;;;5097607;27;20217;-85
2022/04/09 12:35:09;;;;;;;5.07;0.70;;;8.50;99.90;;;;;;5110876;27;20027;-87
2022/04/09 12:37:46;;;;;;;5.03;0.90;;;8.50;99.90;;;;;;5114799;27;20042;-87
2022/04/09 12:40:21;;;;;;;3.67;0.75;;;8.60;99.90;;;;;;5111280;27;20405;-86
2022/04/09 12:42:48;;;;;;;4.68;0.95;;;8.60;99.90;;;;;;5114404;28;20027;-86
2022/04/09 12:45:22;;;;;;;3.88;0.95;;;8.70;99.90;;;;;;5113544;28;20050;-86
2022/04/09 12:47:52;;;;;;;;;;;8.80;99.90;;;;;;5127893;27;20023;-87
2022/04/09 12:50:27;;;;;;;4.50;1.00;;;8.80;99.90;;;;;;5125791;27;20610;-87
2022/04/09 12:52:55;;;;;;;3.65;0.88;;;9.10;99.90;;;;;;5110793;27;20491;-86
2022/04/09 12:55:23;;;;;;;5.82;1.02;;;9.00;99.90;;;;;;5120445;27;20039;-87
2022/04/09 12:57:48;;;;;;;10.07;1.20;;;8.90;99.90;;;;;;5107520;27;20069;-87
2022/04/09 13:00:15;;;;;;;5.30;1.20;;;9.10;99.90;;;;;;5109910;27;20506;-87